createdAt,value
2022-10-23T00:01:43.242Z,12.80
2022-10-23T00:04:16.635Z,12.80
2022-10-23T00:06:43.986Z,12.70
2022-10-23T00:09:12.844Z,12.60
2022-10-23T00:11:41.528Z,12.50
2022-10-23T00:14:08.764Z,12.40
2022-10-23T00:16:35.750Z,12.50
2022-10-23T00:19:03.518Z,12.60
2022-10-23T00:21:30.239Z,12.60
2022-10-23T00:23:57.082Z,12.70
2022-10-23T00:26:24.019Z,12.70
2022-10-23T00:28:53.345Z,12.70
2022-10-23T00:31:21.869Z,12.50
2022-10-23T00:33:49.532Z,12.50
2022-10-23T00:36:18.500Z,12.40
2022-10-23T00:38:46.030Z,12.40
2022-10-23T00:41:22.738Z,12.40
2022-10-23T00:44:30.041Z,12.50
2022-10-23T00:46:57.509Z,12.40
2022-10-23T00:49:25.498Z,12.40
2022-10-23T00:51:57.101Z,12.50
2022-10-23T00:54:27.367Z,12.40
2022-10-23T00:56:59.108Z,12.40
2022-10-23T00:59:26.803Z,12.30
2022-10-23T01:01:54.134Z,12.30
2022-10-23T01:04:21.735Z,12.20
2022-10-23T01:07:05.488Z,12.30
2022-10-23T01:09:41.643Z,12.40
2022-10-23T01:12:19.537Z,12.40
2022-10-23T01:14:58.487Z,12.50
2022-10-23T01:17:40.864Z,12.40
2022-10-23T01:20:35.199Z,12.50
2022-10-23T01:23:49.679Z,12.40
2022-10-23T01:26:54.364Z,12.30
2022-10-23T01:29:28.068Z,12.30
2022-10-23T01:32:11.778Z,12.40
2022-10-23T01:34:52.870Z,12.30
2022-10-23T01:37:27.259Z,12.30
2022-10-23T01:39:58.370Z,12.40
2022-10-23T01:42:34.287Z,12.50
2022-10-23T01:45:18.054Z,12.50
2022-10-23T01:47:45.705Z,12.40
2022-10-23T01:50:14.786Z,12.40
2022-10-23T01:52:41.800Z,12.40
2022-10-23T01:55:11.862Z,12.30
2022-10-23T01:57:40.507Z,12.30
2022-10-23T02:00:12.010Z,12.20
2022-10-23T02:02:40.518Z,12.30
2022-10-23T02:05:12.304Z,12.40
2022-10-23T02:07:39.423Z,12.20
2022-10-23T02:10:08.325Z,12.30
2022-10-23T02:12:59.924Z,12.30
2022-10-23T02:15:38.587Z,12.20
2022-10-23T02:18:18.598Z,12.20
2022-10-23T02:20:56.013Z,12.20
2022-10-23T02:23:25.742Z,12.20
2022-10-23T02:26:12.639Z,12.30
2022-10-23T02:28:47.537Z,12.40
2022-10-23T02:31:17.524Z,12.30
2022-10-23T02:33:47.040Z,12.40
2022-10-23T02:36:14.690Z,12.30
2022-10-23T02:38:43.761Z,12.30
2022-10-23T02:41:37.831Z,12.30
2022-10-23T02:44:22.680Z,12.30
2022-10-23T02:46:55.132Z,12.20
2022-10-23T02:49:40.599Z,12.20
2022-10-23T02:52:25.867Z,12.20
2022-10-23T02:55:16.567Z,12.10
2022-10-23T02:57:49.688Z,12.30
2022-10-23T03:00:19.315Z,12.30
2022-10-23T03:02:50.235Z,12.30
2022-10-23T03:05:21.982Z,12.30
2022-10-23T03:07:49.306Z,12.20
2022-10-23T03:10:16.015Z,12.10
2022-10-23T03:12:43.138Z,12.10
2022-10-23T03:15:12.515Z,12.10
2022-10-23T03:17:39.792Z,12.10
2022-10-23T03:20:07.436Z,12.30
2022-10-23T03:22:34.822Z,12.30
2022-10-23T03:25:01.782Z,12.20
2022-10-23T03:30:00.113Z,12.40
2022-10-23T03:32:26.827Z,12.40
2022-10-23T03:34:53.710Z,12.30
2022-10-23T03:37:20.605Z,12.40
2022-10-23T03:39:47.319Z,12.40
2022-10-23T03:42:14.364Z,12.50
2022-10-23T03:44:41.071Z,12.50
2022-10-23T03:47:09.895Z,12.40
2022-10-23T03:49:36.810Z,12.30
2022-10-23T03:52:03.857Z,12.20
2022-10-23T03:54:30.873Z,12.30
2022-10-23T03:56:57.955Z,12.40
2022-10-23T03:59:24.743Z,12.50
2022-10-23T04:01:51.589Z,12.40
2022-10-23T04:04:18.426Z,12.30
2022-10-23T04:06:45.483Z,12.40
2022-10-23T04:11:39.895Z,12.40
2022-10-23T04:14:06.645Z,12.40
2022-10-23T04:16:33.353Z,12.20
2022-10-23T04:19:00.068Z,12.20
2022-10-23T04:21:26.822Z,12.10
2022-10-23T04:23:53.713Z,12.00
2022-10-23T04:26:20.477Z,11.90
2022-10-23T04:28:47.285Z,12.00
2022-10-23T04:31:14.144Z,12.10
2022-10-23T04:33:40.940Z,12.00
2022-10-23T04:36:08.186Z,12.10
2022-10-23T04:38:34.843Z,12.10
2022-10-23T04:41:01.508Z,12.00
2022-10-23T04:43:28.260Z,12.10
2022-10-23T04:45:55.010Z,12.10
2022-10-23T04:48:25.501Z,12.20
2022-10-23T04:51:00.659Z,12.10
2022-10-23T04:53:28.569Z,12.10
2022-10-23T04:55:57.710Z,12.20
2022-10-23T04:58:25.869Z,12.20
2022-10-23T05:00:53.113Z,12.00
2022-10-23T05:03:21.616Z,12.10
2022-10-23T05:05:48.358Z,12.10
2022-10-23T05:08:17.916Z,12.10
2022-10-23T05:10:45.090Z,12.20
2022-10-23T05:13:11.774Z,12.10
2022-10-23T05:15:38.538Z,12.10
2022-10-23T05:18:28.028Z,12.00
2022-10-23T05:21:05.064Z,11.70
2022-10-23T05:23:33.939Z,11.70
2022-10-23T05:26:00.688Z,11.90
2022-10-23T05:28:27.443Z,12.00
2022-10-23T05:30:54.382Z,12.00
2022-10-23T05:33:21.217Z,12.00
2022-10-23T05:35:48.004Z,11.90
2022-10-23T05:38:15.695Z,12.00
2022-10-23T05:40:42.682Z,12.10
2022-10-23T05:43:09.406Z,12.20
2022-10-23T05:45:36.141Z,11.90
2022-10-23T05:48:10.923Z,11.90
2022-10-23T05:50:43.658Z,12.00
2022-10-23T05:53:11.101Z,12.10
2022-10-23T05:55:38.242Z,12.20
2022-10-23T05:58:05.140Z,12.20
2022-10-23T06:00:31.917Z,12.20
2022-10-23T06:03:02.119Z,12.20
2022-10-23T06:05:28.877Z,12.20
2022-10-23T06:07:59.607Z,12.20
2022-10-23T06:10:27.403Z,12.40
2022-10-23T06:12:54.143Z,12.30
2022-10-23T06:15:20.958Z,12.20
2022-10-23T06:17:47.808Z,12.30
2022-10-23T06:20:14.524Z,12.40
2022-10-23T06:22:41.514Z,12.40
2022-10-23T06:25:09.003Z,12.30
2022-10-23T06:27:35.670Z,12.30
2022-10-23T06:30:02.509Z,12.20
2022-10-23T06:32:32.044Z,12.30
2022-10-23T06:34:58.796Z,12.20
2022-10-23T06:37:25.521Z,12.30
2022-10-23T06:39:52.238Z,12.30
2022-10-23T06:42:19.014Z,12.30
2022-10-23T06:44:45.761Z,12.30
2022-10-23T06:47:14.332Z,12.20
2022-10-23T06:49:41.257Z,12.20
2022-10-23T06:52:14.394Z,12.20
2022-10-23T06:54:50.036Z,12.00
2022-10-23T06:57:16.740Z,12.00
2022-10-23T06:59:43.438Z,11.80
2022-10-23T07:02:10.630Z,11.60
2022-10-23T07:04:37.330Z,11.80
2022-10-23T07:07:04.061Z,11.80
2022-10-23T07:09:30.808Z,11.80
2022-10-23T07:11:57.534Z,11.80
2022-10-23T07:14:24.273Z,11.90
2022-10-23T07:16:51.025Z,11.80
2022-10-23T07:19:17.747Z,11.80
2022-10-23T07:21:44.475Z,11.90
2022-10-23T07:24:11.254Z,11.90
2022-10-23T07:26:38.054Z,11.90
2022-10-23T07:29:04.892Z,12.00
2022-10-23T07:31:31.606Z,12.10
2022-10-23T07:33:58.302Z,12.20
2022-10-23T07:36:25.119Z,12.30
2022-10-23T07:38:51.913Z,12.20
2022-10-23T07:41:18.666Z,12.30
2022-10-23T07:43:46.415Z,12.30
2022-10-23T07:46:13.249Z,12.40
2022-10-23T07:48:40.843Z,12.50
2022-10-23T07:51:12.504Z,12.60
2022-10-23T07:53:40.019Z,12.70
2022-10-23T07:56:17.660Z,12.70
2022-10-23T07:58:44.963Z,12.70
2022-10-23T08:01:21.484Z,12.70
2022-10-23T08:03:48.481Z,12.70
2022-10-23T08:06:15.471Z,12.80
2022-10-23T08:08:42.229Z,13.00
2022-10-23T08:11:12.430Z,13.10
2022-10-23T08:13:39.116Z,13.10
2022-10-23T08:16:06.398Z,13.20
2022-10-23T08:18:33.603Z,13.30
2022-10-23T08:21:03.039Z,13.40
2022-10-23T08:23:30.177Z,13.60
2022-10-23T08:25:59.089Z,13.60
2022-10-23T08:28:26.317Z,13.70
2022-10-23T08:30:53.424Z,13.70
2022-10-23T08:33:20.425Z,13.80
2022-10-23T08:35:47.262Z,13.90
2022-10-23T08:38:13.918Z,13.90
2022-10-23T08:40:47.762Z,14.00
2022-10-23T08:43:29.372Z,14.00
2022-10-23T08:46:03.353Z,14.00
2022-10-23T08:48:55.743Z,14.10
2022-10-23T08:51:29.126Z,14.20
2022-10-23T08:54:20.477Z,14.30
2022-10-23T08:56:55.699Z,14.30
2022-10-23T08:59:43.065Z,14.30
2022-10-23T09:02:19.879Z,14.40
2022-10-23T09:04:48.794Z,14.50
2022-10-23T09:07:24.588Z,14.60
2022-10-23T09:10:16.208Z,14.70
2022-10-23T09:12:43.384Z,14.90
2022-10-23T09:15:31.854Z,15.10
2022-10-23T09:18:04.687Z,15.10
2022-10-23T09:20:36.395Z,15.00
2022-10-23T09:23:14.201Z,15.00
2022-10-23T09:25:41.797Z,15.00
2022-10-23T09:28:20.454Z,15.10
2022-10-23T09:30:48.513Z,15.10
2022-10-23T09:33:23.137Z,15.30
2022-10-23T09:36:01.899Z,15.40
2022-10-23T09:38:34.457Z,15.40
2022-10-23T09:41:10.981Z,15.40
2022-10-23T09:43:37.737Z,15.50
2022-10-23T09:46:06.575Z,15.60
2022-10-23T09:48:34.533Z,15.60
2022-10-23T09:51:04.484Z,15.90
2022-10-23T09:53:34.926Z,15.90
2022-10-23T09:56:07.843Z,16.00
2022-10-23T09:58:38.703Z,16.10
2022-10-23T10:01:05.977Z,16.30
2022-10-23T10:03:32.815Z,16.30
2022-10-23T10:06:04.732Z,16.40
2022-10-23T10:08:49.089Z,16.30
2022-10-23T10:11:42.714Z,16.40
2022-10-23T10:14:18.271Z,16.40
2022-10-23T10:16:52.318Z,16.50
2022-10-23T10:19:37.078Z,16.50
2022-10-23T10:22:28.348Z,16.60
2022-10-23T10:25:02.888Z,16.60
2022-10-23T10:27:36.858Z,16.60
2022-10-23T10:30:23.843Z,16.70
2022-10-23T10:33:16.604Z,16.80
2022-10-23T10:36:12.719Z,16.90
2022-10-23T10:38:52.801Z,16.90
2022-10-23T10:41:45.000Z,17.00
2022-10-23T10:44:33.549Z,17.10
2022-10-23T10:47:21.201Z,17.20
2022-10-23T10:50:17.691Z,17.30
2022-10-23T10:53:28.074Z,17.30
2022-10-23T10:55:56.801Z,17.40
2022-10-23T10:58:40.559Z,17.40
2022-10-23T11:01:26.575Z,17.40
2022-10-23T11:04:26.475Z,17.50
2022-10-23T11:06:55.389Z,17.50
2022-10-23T11:09:27.316Z,17.60
2022-10-23T11:11:54.571Z,17.70
2022-10-23T11:14:27.513Z,17.70
2022-10-23T11:16:57.291Z,17.70
2022-10-23T11:19:52.278Z,17.70
2022-10-23T11:22:42.346Z,17.80
2022-10-23T11:25:23.508Z,17.70
2022-10-23T11:28:03.365Z,17.80
2022-10-23T11:30:49.372Z,17.80
2022-10-23T11:33:39.268Z,17.80
2022-10-23T11:36:16.300Z,17.80
2022-10-23T11:38:49.756Z,17.80
2022-10-23T11:41:21.041Z,17.90
2022-10-23T11:44:05.115Z,17.90
2022-10-23T11:46:35.310Z,17.90
2022-10-23T11:49:06.058Z,18.00
2022-10-23T11:51:40.580Z,18.00
2022-10-23T11:54:08.448Z,18.20
2022-10-23T11:56:35.839Z,18.40
2022-10-23T11:59:52.055Z,18.10
2022-10-23T12:02:29.142Z,18.10
2022-10-23T12:04:56.443Z,18.00
2022-10-23T12:07:24.752Z,18.10
2022-10-23T12:10:04.560Z,18.10
2022-10-23T12:12:40.716Z,18.20
2022-10-23T12:15:14.532Z,18.20
2022-10-23T12:17:43.244Z,18.20
2022-10-23T12:20:13.182Z,18.20
2022-10-23T12:22:47.533Z,18.20
2022-10-23T12:25:37.081Z,18.20
2022-10-23T12:28:18.827Z,18.20
2022-10-23T12:30:50.866Z,18.20
2022-10-23T12:33:49.379Z,18.20
2022-10-23T12:36:16.016Z,18.20
2022-10-23T12:38:45.884Z,18.20
2022-10-23T12:41:19.143Z,18.20
2022-10-23T12:43:55.792Z,18.30
2022-10-23T12:46:31.013Z,18.40
2022-10-23T12:48:59.294Z,18.40
2022-10-23T12:51:31.784Z,18.30
2022-10-23T12:53:58.852Z,18.30
2022-10-23T12:56:28.584Z,18.20
2022-10-23T12:59:02.147Z,18.30
2022-10-23T13:01:33.540Z,18.30
2022-10-23T13:04:21.073Z,18.30
2022-10-23T13:06:49.777Z,18.30
2022-10-23T13:09:24.351Z,18.20
2022-10-23T13:11:52.126Z,18.30
2022-10-23T13:14:33.849Z,18.30
2022-10-23T13:17:02.934Z,18.30
2022-10-23T13:19:29.836Z,18.30
2022-10-23T13:21:57.456Z,18.20
2022-10-23T13:24:27.420Z,18.20
2022-10-23T13:26:55.131Z,18.10
2022-10-23T13:29:28.549Z,18.10
2022-10-23T13:31:55.358Z,18.20
2022-10-23T13:34:26.683Z,18.20
2022-10-23T13:36:57.306Z,18.20
2022-10-23T13:39:29.996Z,18.20
2022-10-23T13:42:01.392Z,18.20
2022-10-23T13:44:29.151Z,18.10
2022-10-23T13:46:56.485Z,18.10
2022-10-23T13:49:23.302Z,18.10
2022-10-23T13:51:53.392Z,18.10
2022-10-23T13:56:58.065Z,18.20
2022-10-23T13:59:24.808Z,18.20
2022-10-23T14:01:51.835Z,18.10
2022-10-23T14:04:19.482Z,18.10
2022-10-23T14:06:46.323Z,18.10
2022-10-23T14:09:16.960Z,18.00
2022-10-23T14:11:44.181Z,18.10
2022-10-23T14:14:10.936Z,18.10
2022-10-23T14:16:37.980Z,18.20
2022-10-23T14:19:04.970Z,18.10
2022-10-23T14:21:31.902Z,18.10
2022-10-23T14:23:58.607Z,18.10
2022-10-23T14:26:30.460Z,18.10
2022-10-23T14:29:01.052Z,18.10
2022-10-23T14:31:31.877Z,18.10
2022-10-23T14:34:00.729Z,18.10
2022-10-23T14:36:38.337Z,18.00
2022-10-23T14:39:15.745Z,18.10
2022-10-23T14:41:42.477Z,18.20
2022-10-23T14:44:09.173Z,18.20
2022-10-23T14:57:21.055Z,18.20
2022-10-23T14:59:48.926Z,18.50
2022-10-23T15:02:16.514Z,18.50
2022-10-23T15:04:43.214Z,18.50
2022-10-23T15:07:09.885Z,18.60
2022-10-23T15:09:36.701Z,18.60
2022-10-23T15:12:04.703Z,18.70
2022-10-23T15:14:31.699Z,18.60
2022-10-23T15:16:58.452Z,18.60
2022-10-23T15:19:26.436Z,18.50
2022-10-23T15:21:53.162Z,18.50
2022-10-23T15:24:21.303Z,18.50
2022-10-23T15:26:49.834Z,18.40
2022-10-23T15:29:16.639Z,18.30
2022-10-23T15:31:57.354Z,18.40
2022-10-23T15:34:27.171Z,18.20
2022-10-23T15:36:55.489Z,18.20
2022-10-23T15:39:25.427Z,18.20
2022-10-23T15:41:54.216Z,18.20
2022-10-23T15:44:22.984Z,18.10
2022-10-23T15:46:50.280Z,18.00
2022-10-23T15:49:17.146Z,18.00
2022-10-23T15:51:44.329Z,18.00
2022-10-23T15:54:16.670Z,17.90
2022-10-23T15:56:44.412Z,18.00
2022-10-23T15:59:11.087Z,17.90
2022-10-23T16:01:38.415Z,17.90
2022-10-23T16:04:05.455Z,17.80
2022-10-23T16:06:32.528Z,17.90
2022-10-23T16:08:59.888Z,17.70
2022-10-23T16:11:36.477Z,17.80
2022-10-23T16:14:04.231Z,17.80
2022-10-23T16:16:32.210Z,17.80
2022-10-23T16:19:00.615Z,17.80
2022-10-23T16:21:32.997Z,17.90
2022-10-23T16:24:01.430Z,17.90
2022-10-23T16:26:29.820Z,17.80
2022-10-23T16:28:59.394Z,17.80
2022-10-23T16:31:27.147Z,17.80
2022-10-23T16:33:54.515Z,17.80
2022-10-23T16:36:21.573Z,17.70
2022-10-23T16:38:48.306Z,17.70
2022-10-23T16:41:15.055Z,17.70
2022-10-23T16:43:41.808Z,17.60
2022-10-23T16:46:20.248Z,17.60
2022-10-23T16:48:47.159Z,17.60
2022-10-23T16:51:17.345Z,17.50
2022-10-23T16:53:45.131Z,17.50
2022-10-23T16:56:15.291Z,17.50
2022-10-23T16:58:42.998Z,17.50
2022-10-23T17:01:16.095Z,17.50
2022-10-23T17:03:46.110Z,17.50
2022-10-23T17:06:14.846Z,17.50
2022-10-23T17:08:42.154Z,17.50
2022-10-23T17:11:14.596Z,17.50
2022-10-23T17:13:44.347Z,17.50
2022-10-23T17:16:14.120Z,17.50
2022-10-23T17:18:43.969Z,17.60
2022-10-23T17:21:12.850Z,17.50
2022-10-23T17:23:40.040Z,17.50
2022-10-23T17:26:13.459Z,17.50
2022-10-23T17:28:42.311Z,17.60
2022-10-23T17:31:17.669Z,17.70
2022-10-23T17:33:45.695Z,17.70
2022-10-23T17:36:15.100Z,17.60
2022-10-23T17:38:43.691Z,17.60
2022-10-23T17:41:12.510Z,17.60
2022-10-23T17:43:39.461Z,17.50
2022-10-23T17:46:07.775Z,17.60
2022-10-23T17:48:35.158Z,17.50
2022-10-23T17:51:04.171Z,17.40
2022-10-23T17:53:30.990Z,17.40
2022-10-23T17:56:00.904Z,17.40
2022-10-23T17:58:27.789Z,17.40
2022-10-23T18:00:54.550Z,17.40
2022-10-23T18:03:21.459Z,17.40
2022-10-23T18:05:48.360Z,17.30
2022-10-23T18:08:15.193Z,17.30
2022-10-23T18:10:41.904Z,17.20
2022-10-23T18:13:08.668Z,17.20
2022-10-23T18:15:35.898Z,17.20
2022-10-23T18:18:07.838Z,17.10
2022-10-23T18:20:40.000Z,17.20
2022-10-23T18:23:07.891Z,17.10
2022-10-23T18:25:35.044Z,17.00
2022-10-23T18:28:02.634Z,17.00
2022-10-23T18:30:29.688Z,17.00
2022-10-23T18:32:58.170Z,16.90
2022-10-23T18:35:25.274Z,17.00
2022-10-23T18:37:52.426Z,17.00
2022-10-23T18:40:20.536Z,17.10
2022-10-23T18:42:48.253Z,17.10
2022-10-23T18:45:15.280Z,17.20
2022-10-23T18:47:42.382Z,17.10
2022-10-23T18:50:09.827Z,17.20
2022-10-23T18:52:36.588Z,17.20
2022-10-23T18:55:06.189Z,17.20
2022-10-23T18:57:34.378Z,17.10
2022-10-23T19:00:02.087Z,17.00
2022-10-23T19:02:30.373Z,17.00
2022-10-23T19:04:57.530Z,17.00
2022-10-23T19:07:24.674Z,17.00
2022-10-23T19:09:52.192Z,17.00
2022-10-23T19:12:19.322Z,17.00
2022-10-23T19:14:46.510Z,17.00
2022-10-23T19:17:23.119Z,17.10
2022-10-23T19:19:59.564Z,17.20
2022-10-23T19:22:28.771Z,17.00
2022-10-23T19:24:59.234Z,17.00
2022-10-23T19:27:30.055Z,16.90
2022-10-23T19:30:01.166Z,16.90
2022-10-23T19:32:27.902Z,16.80
2022-10-23T19:34:54.790Z,16.80
2022-10-23T19:37:21.548Z,16.80
2022-10-23T19:39:48.278Z,16.70
2022-10-23T19:42:15.023Z,16.80
2022-10-23T19:44:41.828Z,16.80
2022-10-23T19:47:08.574Z,16.70
2022-10-23T19:49:35.320Z,16.70
2022-10-23T19:52:02.084Z,16.70
2022-10-23T19:54:28.870Z,16.60
2022-10-23T19:56:57.143Z,16.60
2022-10-23T19:59:24.605Z,16.60
2022-10-23T20:01:51.501Z,16.60
2022-10-23T20:04:18.828Z,16.50
2022-10-23T20:06:46.310Z,16.60
2022-10-23T20:09:13.167Z,16.50
2022-10-23T20:11:40.329Z,16.50
2022-10-23T20:14:07.945Z,16.40
2022-10-23T20:16:37.298Z,16.50
2022-10-23T20:19:10.227Z,16.50
2022-10-23T20:21:41.887Z,16.50
2022-10-23T20:24:09.742Z,16.50
2022-10-23T20:26:38.970Z,16.40
2022-10-23T20:29:05.881Z,16.40
2022-10-23T20:31:33.292Z,16.40
2022-10-23T20:34:00.225Z,16.50
2022-10-23T20:36:29.883Z,16.50
2022-10-23T20:38:59.029Z,16.50
2022-10-23T20:41:27.128Z,16.50
2022-10-23T20:43:55.858Z,16.50
2022-10-23T20:46:23.253Z,16.50
2022-10-23T20:48:50.486Z,16.40
2022-10-23T20:51:19.969Z,16.40
2022-10-23T20:53:51.001Z,16.30
2022-10-23T20:56:23.610Z,16.30
2022-10-23T20:58:50.893Z,16.40
2022-10-23T21:01:18.300Z,16.40
2022-10-23T21:03:51.006Z,16.40
2022-10-23T21:06:19.493Z,16.30
2022-10-23T21:08:46.359Z,16.30
2022-10-23T21:11:17.353Z,16.10
2022-10-23T21:13:44.977Z,16.20
2022-10-23T21:16:27.590Z,16.20
2022-10-23T21:18:56.837Z,16.20
2022-10-23T21:21:24.730Z,16.20
2022-10-23T21:23:53.645Z,16.20
2022-10-23T21:26:22.504Z,16.10
2022-10-23T21:28:56.238Z,16.00
2022-10-23T21:31:33.949Z,16.00
2022-10-23T21:34:00.894Z,16.00
2022-10-23T21:36:29.841Z,16.00
2022-10-23T21:38:59.140Z,16.00
2022-10-23T21:41:29.213Z,16.00
2022-10-23T21:43:59.586Z,16.10
2022-10-23T21:46:27.265Z,16.10
2022-10-23T21:48:54.311Z,16.30
2022-10-23T21:51:29.185Z,16.70
2022-10-23T21:53:57.070Z,17.10
2022-10-23T21:56:45.286Z,17.30
2022-10-23T21:59:20.455Z,17.60
2022-10-23T22:01:48.850Z,17.70
2022-10-23T22:04:17.551Z,17.90
2022-10-23T22:06:45.099Z,17.90
2022-10-23T22:09:15.839Z,17.90
2022-10-23T22:11:42.716Z,17.80
2022-10-23T22:14:09.478Z,17.90
2022-10-23T22:16:36.371Z,18.00
2022-10-23T22:19:03.395Z,17.90
2022-10-23T22:21:30.679Z,17.90
2022-10-23T22:23:59.388Z,17.90
2022-10-23T22:26:48.234Z,17.90
2022-10-23T22:29:17.875Z,17.90
2022-10-23T22:31:48.814Z,17.90
2022-10-23T22:34:47.816Z,17.90
2022-10-23T22:37:11.022Z,17.90
2022-10-23T22:39:38.384Z,17.90
2022-10-23T22:42:05.324Z,17.80
2022-10-23T22:44:31.966Z,17.80
2022-10-23T22:46:58.707Z,17.70
2022-10-23T22:49:25.426Z,17.70
2022-10-23T22:51:52.104Z,17.60
2022-10-23T22:54:18.833Z,17.60
2022-10-23T22:56:45.572Z,17.60
2022-10-23T22:59:12.257Z,17.60
2022-10-23T23:01:42.501Z,17.60
2022-10-23T23:04:25.890Z,17.60
2022-10-23T23:06:57.994Z,17.50
2022-10-23T23:09:24.733Z,17.50
2022-10-23T23:11:52.583Z,17.40
2022-10-23T23:14:23.503Z,17.40
2022-10-23T23:16:52.854Z,17.40
2022-10-23T23:19:19.827Z,17.40
2022-10-23T23:21:46.629Z,17.30
2022-10-23T23:24:13.381Z,17.30
2022-10-23T23:26:40.208Z,17.30
2022-10-23T23:29:06.917Z,17.30
2022-10-23T23:31:33.691Z,17.20
2022-10-23T23:34:00.974Z,17.20
2022-10-23T23:36:28.298Z,17.10
2022-10-23T23:38:56.520Z,17.00
2022-10-23T23:41:23.666Z,17.00
2022-10-23T23:43:50.677Z,16.80
2022-10-23T23:46:18.030Z,16.80
2022-10-23T23:48:48.331Z,16.80
2022-10-23T23:51:22.235Z,16.90
2022-10-23T23:53:49.304Z,16.80
2022-10-23T23:56:16.497Z,16.80
2022-10-23T23:58:43.204Z,16.80
